sensor_id;sensor_type;location;lat;lon;timestamp;pressure;altitude;pressure_sealevel;temperature;humidity
5350;BME280;2697;42.144;24.794;2023-07-09T00:01:02;158531.88;;;23.03;90.57
5350;BME280;2697;42.144;24.794;2023-07-09T00:03:27;158530.53;;;23.02;89.74
5350;BME280;2697;42.144;24.794;2023-07-09T00:05:53;158529.22;;;23.02;90.80
5350;BME280;2697;42.144;24.794;2023-07-09T00:08:29;158444.09;;;22.69;91.88
5350;BME280;2697;42.144;24.794;2023-07-09T00:10:56;158466.69;;;22.78;91.39
5350;BME280;2697;42.144;24.794;2023-07-09T00:13:23;158466.69;;;22.78;90.71
5350;BME280;2697;42.144;24.794;2023-07-09T00:15:49;158462.72;;;22.76;90.43
5350;BME280;2697;42.144;24.794;2023-07-09T00:18:15;158444.09;;;22.69;90.62
5350;BME280;2697;42.144;24.794;2023-07-09T00:20:40;158414.88;;;22.58;90.70
5350;BME280;2697;42.144;24.794;2023-07-09T00:23:11;158387.00;;;22.47;92.27
5350;BME280;2697;42.144;24.794;2023-07-09T00:25:39;158400.31;;;22.53;90.78
5350;BME280;2697;42.144;24.794;2023-07-09T00:28:15;158392.31;;;22.50;90.81
5350;BME280;2697;42.144;24.794;2023-07-09T00:30:41;158368.38;;;22.40;90.63
5350;BME280;2697;42.144;24.794;2023-07-09T00:33:11;158367.06;;;22.40;91.20
5350;BME280;2697;42.144;24.794;2023-07-09T00:35:40;158367.06;;;22.40;90.30
5350;BME280;2697;42.144;24.794;2023-07-09T00:38:10;158373.69;;;22.42;90.08
5350;BME280;2697;42.144;24.794;2023-07-09T00:40:37;158345.81;;;22.32;90.36
5350;BME280;2697;42.144;24.794;2023-07-09T00:43:10;158351.16;;;22.34;90.12
5350;BME280;2697;42.144;24.794;2023-07-09T00:45:39;158400.31;;;22.53;88.91
5350;BME280;2697;42.144;24.794;2023-07-09T00:48:11;158365.75;;;22.39;88.76
5350;BME280;2697;42.144;24.794;2023-07-09T00:50:49;158402.97;;;22.54;88.08
5350;BME280;2697;42.144;24.794;2023-07-09T00:53:28;158373.69;;;22.42;87.74
5350;BME280;2697;42.144;24.794;2023-07-09T00:56:06;158383.03;;;22.46;87.77
5350;BME280;2697;42.144;24.794;2023-07-09T00:58:36;158353.81;;;22.35;88.09
5350;BME280;2697;42.144;24.794;2023-07-09T01:01:05;158360.44;;;22.37;87.55
5350;BME280;2697;42.144;24.794;2023-07-09T01:03:39;158360.44;;;22.37;87.62
5350;BME280;2697;42.144;24.794;2023-07-09T01:06:08;158339.19;;;22.29;87.89
5350;BME280;2697;42.144;24.794;2023-07-09T01:08:35;158355.13;;;22.35;86.99
5350;BME280;2697;42.144;24.794;2023-07-09T01:11:02;158348.47;;;22.33;86.38
5350;BME280;2697;42.144;24.794;2023-07-09T01:13:29;158316.59;;;22.21;87.38
5350;BME280;2697;42.144;24.794;2023-07-09T01:15:58;158309.97;;;22.18;86.83
5350;BME280;2697;42.144;24.794;2023-07-09T01:18:23;158355.13;;;22.35;85.89
5350;BME280;2697;42.144;24.794;2023-07-09T01:20:50;158304.66;;;22.16;86.88
5350;BME280;2697;42.144;24.794;2023-07-09T01:23:18;158328.56;;;22.25;86.42
5350;BME280;2697;42.144;24.794;2023-07-09T01:25:50;158294.00;;;22.12;86.73
5350;BME280;2697;42.144;24.794;2023-07-09T01:28:18;158312.63;;;22.19;86.41
5350;BME280;2697;42.144;24.794;2023-07-09T01:30:44;158319.25;;;22.22;85.96
5350;BME280;2697;42.144;24.794;2023-07-09T01:33:09;158299.31;;;22.14;86.36
5350;BME280;2697;42.144;24.794;2023-07-09T01:35:37;158276.69;;;22.05;86.74
5350;BME280;2697;42.144;24.794;2023-07-09T01:38:06;158283.41;;;22.08;86.81
5350;BME280;2697;42.144;24.794;2023-07-09T01:40:32;158258.13;;;21.98;86.63
5350;BME280;2697;42.144;24.794;2023-07-09T01:42:58;158268.72;;;22.02;86.65
5350;BME280;2697;42.144;24.794;2023-07-09T01:45:25;158304.66;;;22.16;85.69
5350;BME280;2697;42.144;24.794;2023-07-09T01:47:51;158316.59;;;22.21;85.20
5350;BME280;2697;42.144;24.794;2023-07-09T01:50:19;158275.34;;;22.05;85.67
5350;BME280;2697;42.144;24.794;2023-07-09T01:52:45;158266.09;;;22.01;86.05
5350;BME280;2697;42.144;24.794;2023-07-09T01:55:12;158286.06;;;22.09;86.09
5350;BME280;2697;42.144;24.794;2023-07-09T01:57:38;158275.34;;;22.05;85.73
5350;BME280;2697;42.144;24.794;2023-07-09T02:00:08;158262.09;;;22.00;86.24
5350;BME280;2697;42.144;24.794;2023-07-09T02:02:35;158251.47;;;21.96;86.51
5350;BME280;2697;42.144;24.794;2023-07-09T02:05:01;158240.84;;;21.91;86.00
5350;BME280;2697;42.144;24.794;2023-07-09T02:07:27;158262.09;;;22.00;85.76
5350;BME280;2697;42.144;24.794;2023-07-09T02:09:52;158243.50;;;21.92;85.63
5350;BME280;2697;42.144;24.794;2023-07-09T02:12:18;158243.50;;;21.92;85.53
5350;BME280;2697;42.144;24.794;2023-07-09T02:14:45;158255.47;;;21.97;84.78
5350;BME280;2697;42.144;24.794;2023-07-09T02:17:12;158270.06;;;22.03;84.87
5350;BME280;2697;42.144;24.794;2023-07-09T02:19:38;158242.19;;;21.92;85.14
5350;BME280;2697;42.144;24.794;2023-07-09T02:22:04;158236.88;;;21.90;85.13
5350;BME280;2697;42.144;24.794;2023-07-09T02:24:29;158275.34;;;22.05;83.89
5350;BME280;2697;42.144;24.794;2023-07-09T02:26:55;158244.84;;;21.93;85.05
5350;BME280;2697;42.144;24.794;2023-07-09T02:29:22;158240.84;;;21.91;84.61
5350;BME280;2697;42.144;24.794;2023-07-09T02:31:49;158239.53;;;21.91;84.89
5350;BME280;2697;42.144;24.794;2023-07-09T02:34:15;158240.84;;;21.91;84.11
5350;BME280;2697;42.144;24.794;2023-07-09T02:36:40;158256.81;;;21.98;83.70
5350;BME280;2697;42.144;24.794;2023-07-09T02:39:09;158246.16;;;21.94;83.58
5350;BME280;2697;42.144;24.794;2023-07-09T02:41:35;158252.78;;;21.96;83.33
5350;BME280;2697;42.144;24.794;2023-07-09T02:44:01;158244.84;;;21.93;83.36
5350;BME280;2697;42.144;24.794;2023-07-09T02:46:26;158259.47;;;21.99;82.91
5350;BME280;2697;42.144;24.794;2023-07-09T02:48:52;158224.91;;;21.85;83.46
5350;BME280;2697;42.144;24.794;2023-07-09T02:51:17;158198.34;;;21.75;83.78
5350;BME280;2697;42.144;24.794;2023-07-09T02:53:42;158228.88;;;21.87;83.18
5350;BME280;2697;42.144;24.794;2023-07-09T02:56:08;158243.50;;;21.92;82.65
5350;BME280;2697;42.144;24.794;2023-07-09T02:58:33;158232.91;;;21.88;82.84
5350;BME280;2697;42.144;24.794;2023-07-09T03:00:58;158270.06;;;22.03;82.08
5350;BME280;2697;42.144;24.794;2023-07-09T03:03:24;158262.09;;;22.00;82.26
5350;BME280;2697;42.144;24.794;2023-07-09T03:05:49;158275.34;;;22.05;81.84
5350;BME280;2697;42.144;24.794;2023-07-09T03:08:15;158263.44;;;22.00;82.20
5350;BME280;2697;42.144;24.794;2023-07-09T03:10:40;158299.31;;;22.14;81.65
5350;BME280;2697;42.144;24.794;2023-07-09T03:13:06;158283.41;;;22.08;81.97
5350;BME280;2697;42.144;24.794;2023-07-09T03:15:31;158347.13;;;22.32;81.07
5350;BME280;2697;42.144;24.794;2023-07-09T03:17:57;158430.84;;;22.64;78.22
5350;BME280;2697;42.144;24.794;2023-07-09T03:20:23;158474.69;;;22.81;78.46
5350;BME280;2697;42.144;24.794;2023-07-09T03:22:48;158531.88;;;23.03;77.40
5350;BME280;2697;42.144;24.794;2023-07-09T03:25:14;158559.78;;;23.14;76.33
5350;BME280;2697;42.144;24.794;2023-07-09T03:27:40;158658.13;;;23.51;74.72
5350;BME280;2697;42.144;24.794;2023-07-09T03:30:05;158737.94;;;23.82;72.75
5350;BME280;2697;42.144;24.794;2023-07-09T03:32:31;158783.16;;;23.99;71.93
5350;BME280;2697;42.144;24.794;2023-07-09T03:34:57;158831.03;;;24.17;71.21
5350;BME280;2697;42.144;24.794;2023-07-09T03:37:22;158889.63;;;24.40;69.53
5350;BME280;2697;42.144;24.794;2023-07-09T03:39:47;158982.75;;;24.76;68.36
5350;BME280;2697;42.144;24.794;2023-07-09T03:42:13;158965.44;;;24.69;67.70
5350;BME280;2697;42.144;24.794;2023-07-09T03:44:39;159035.94;;;24.96;66.62
5350;BME280;2697;42.144;24.794;2023-07-09T03:47:05;159115.84;;;25.26;65.77
5350;BME280;2697;42.144;24.794;2023-07-09T03:49:31;159211.66;;;25.63;64.63
5350;BME280;2697;42.144;24.794;2023-07-09T03:51:56;159291.59;;;25.94;62.57
5350;BME280;2697;42.144;24.794;2023-07-09T03:54:22;159275.63;;;25.88;61.68
5350;BME280;2697;42.144;24.794;2023-07-09T03:56:47;159347.50;;;26.15;61.60
5350;BME280;2697;42.144;24.794;2023-07-09T03:59:12;159423.50;;;26.44;59.22
5350;BME280;2697;42.144;24.794;2023-07-09T04:01:38;159392.78;;;26.32;60.15
5350;BME280;2697;42.144;24.794;2023-07-09T04:04:03;159516.69;;;26.80;57.85
5350;BME280;2697;42.144;24.794;2023-07-09T04:06:29;159528.72;;;26.84;57.42
5350;BME280;2697;42.144;24.794;2023-07-09T04:08:54;159552.69;;;26.93;56.90
5350;BME280;2697;42.144;24.794;2023-07-09T04:11:19;159652.66;;;27.32;55.45
5350;BME280;2697;42.144;24.794;2023-07-09T04:13:45;159607.34;;;27.14;55.38
5350;BME280;2697;42.144;24.794;2023-07-09T04:16:10;159651.34;;;27.31;54.46
5350;BME280;2697;42.144;24.794;2023-07-09T04:18:36;159699.31;;;27.49;54.48
5350;BME280;2697;42.144;24.794;2023-07-09T04:21:02;159672.66;;;27.39;54.41
5350;BME280;2697;42.144;24.794;2023-07-09T04:23:27;159757.97;;;27.72;54.35
5350;BME280;2697;42.144;24.794;2023-07-09T04:25:53;159808.63;;;27.91;53.04
5350;BME280;2697;42.144;24.794;2023-07-09T04:28:18;159780.66;;;27.80;52.00
5350;BME280;2697;42.144;24.794;2023-07-09T04:30:48;159906.00;;;28.28;51.80
5350;BME280;2697;42.144;24.794;2023-07-09T04:33:15;159893.97;;;28.24;51.26
5350;BME280;2697;42.144;24.794;2023-07-09T04:35:46;159944.69;;;28.43;51.11
5350;BME280;2697;42.144;24.794;2023-07-09T04:38:12;159963.38;;;28.50;50.31
5350;BME280;2697;42.144;24.794;2023-07-09T04:40:38;159888.66;;;28.22;51.07
5350;BME280;2697;42.144;24.794;2023-07-09T04:43:03;159827.31;;;27.98;51.06
5350;BME280;2697;42.144;24.794;2023-07-09T04:45:29;159924.69;;;28.35;50.46
5350;BME280;2697;42.144;24.794;2023-07-09T04:47:54;160016.72;;;28.71;50.14
5350;BME280;2697;42.144;24.794;2023-07-09T04:50:19;160131.50;;;29.14;49.24
5350;BME280;2697;42.144;24.794;2023-07-09T04:52:45;160302.34;;;29.79;47.14
5350;BME280;2697;42.144;24.794;2023-07-09T04:55:10;160330.38;;;29.90;46.56
5350;BME280;2697;42.144;24.794;2023-07-09T04:57:36;160254.28;;;29.61;46.75
5350;BME280;2697;42.144;24.794;2023-07-09T05:00:03;160282.31;;;29.72;46.85
5350;BME280;2697;42.144;24.794;2023-07-09T05:02:31;160373.09;;;30.06;46.31
5350;BME280;2697;42.144;24.794;2023-07-09T05:04:56;160515.94;;;30.61;45.28
5350;BME280;2697;42.144;24.794;2023-07-09T05:07:21;160621.53;;;31.01;43.91
5350;BME280;2697;42.144;24.794;2023-07-09T05:09:47;160773.84;;;31.59;42.74
5350;BME280;2697;42.144;24.794;2023-07-09T05:12:12;160831.34;;;31.81;41.61
5350;BME280;2697;42.144;24.794;2023-07-09T05:14:38;160612.16;;;30.98;42.59
5350;BME280;2697;42.144;24.794;2023-07-09T05:17:04;160474.59;;;30.45;43.65
5350;BME280;2697;42.144;24.794;2023-07-09T05:19:29;160291.63;;;29.75;44.01
5350;BME280;2697;42.144;24.794;2023-07-09T05:21:55;160390.47;;;30.13;43.47
5350;BME280;2697;42.144;24.794;2023-07-09T05:24:20;160239.59;;;29.56;45.14
5350;BME280;2697;42.144;24.794;2023-07-09T05:26:45;160377.13;;;30.08;44.20
5350;BME280;2697;42.144;24.794;2023-07-09T05:29:11;160307.66;;;29.82;44.37
5350;BME280;2697;42.144;24.794;2023-07-09T05:31:36;160510.63;;;30.59;43.09
5350;BME280;2697;42.144;24.794;2023-07-09T05:34:02;160507.94;;;30.58;43.79
5350;BME280;2697;42.144;24.794;2023-07-09T05:36:27;160577.44;;;30.84;43.14
5350;BME280;2697;42.144;24.794;2023-07-09T05:38:54;160699.03;;;31.31;41.00
5350;BME280;2697;42.144;24.794;2023-07-09T05:41:20;160459.88;;;30.40;42.61
5350;BME280;2697;42.144;24.794;2023-07-09T05:43:45;160482.59;;;30.48;42.74
5350;BME280;2697;42.144;24.794;2023-07-09T05:46:12;160430.53;;;30.28;43.31
5350;BME280;2697;42.144;24.794;2023-07-09T05:48:38;160487.91;;;30.50;42.87
5350;BME280;2697;42.144;24.794;2023-07-09T05:51:04;160323.72;;;29.88;42.89
5350;BME280;2697;42.144;24.794;2023-07-09T05:53:29;160545.41;;;30.72;41.60
5350;BME280;2697;42.144;24.794;2023-07-09T05:55:57;160478.59;;;30.47;42.82
5350;BME280;2697;42.144;24.794;2023-07-09T05:58:23;160494.63;;;30.53;42.37
5350;BME280;2697;42.144;24.794;2023-07-09T06:00:52;160753.78;;;31.52;40.87
5350;BME280;2697;42.144;24.794;2023-07-09T06:03:24;160799.22;;;31.69;40.62
5350;BME280;2697;42.144;24.794;2023-07-09T06:05:50;160675.00;;;31.22;40.64
5350;BME280;2697;42.144;24.794;2023-07-09T06:08:17;160594.81;;;30.91;42.54
5350;BME280;2697;42.144;24.794;2023-07-09T06:10:58;160727.09;;;31.41;40.30
5350;BME280;2697;42.144;24.794;2023-07-09T06:13:25;160550.75;;;30.74;41.35
5350;BME280;2697;42.144;24.794;2023-07-09T06:15:53;160466.53;;;30.42;41.17
5350;BME280;2697;42.144;24.794;2023-07-09T06:18:19;160323.72;;;29.88;42.40
5350;BME280;2697;42.144;24.794;2023-07-09T06:20:50;160358.38;;;30.01;42.67
5350;BME280;2697;42.144;24.794;2023-07-09T06:23:16;160467.88;;;30.43;43.42
5350;BME280;2697;42.144;24.794;2023-07-09T06:25:42;160648.22;;;31.11;41.63
5350;BME280;2697;42.144;24.794;2023-07-09T06:28:08;160660.22;;;31.16;40.98
5350;BME280;2697;42.144;24.794;2023-07-09T06:30:34;160641.56;;;31.09;40.82
5350;BME280;2697;42.144;24.794;2023-07-09T06:33:00;160515.94;;;30.61;42.18
5350;BME280;2697;42.144;24.794;2023-07-09T06:35:26;160626.84;;;31.03;40.81
5350;BME280;2697;42.144;24.794;2023-07-09T06:37:51;160767.19;;;31.57;40.07
5350;BME280;2697;42.144;24.794;2023-07-09T06:40:16;160852.72;;;31.89;39.07
5350;BME280;2697;42.144;24.794;2023-07-09T06:42:42;160622.84;;;31.02;40.78
5350;BME280;2697;42.144;24.794;2023-07-09T06:45:08;160918.22;;;32.14;38.78
5350;BME280;2697;42.144;24.794;2023-07-09T06:47:34;160809.88;;;31.73;40.31
5350;BME280;2697;42.144;24.794;2023-07-09T06:49:59;160914.22;;;32.13;39.52
5350;BME280;2697;42.144;24.794;2023-07-09T06:52:24;160827.31;;;31.80;39.56
5350;BME280;2697;42.144;24.794;2023-07-09T06:54:50;161031.88;;;32.57;38.55
5350;BME280;2697;42.144;24.794;2023-07-09T06:57:15;161073.28;;;32.73;39.04
5350;BME280;2697;42.144;24.794;2023-07-09T06:59:40;160962.38;;;32.31;38.23
5350;BME280;2697;42.144;24.794;2023-07-09T07:02:06;160824.66;;;31.79;39.51
5350;BME280;2697;42.144;24.794;2023-07-09T07:04:31;160852.72;;;31.89;39.84
5350;BME280;2697;42.144;24.794;2023-07-09T07:06:57;161077.31;;;32.75;37.81
5350;BME280;2697;42.144;24.794;2023-07-09T07:09:23;161221.75;;;33.30;36.86
5350;BME280;2697;42.144;24.794;2023-07-09T07:11:49;161245.88;;;33.39;35.91
5350;BME280;2697;42.144;24.794;2023-07-09T07:14:14;161007.81;;;32.48;37.75
5350;BME280;2697;42.144;24.794;2023-07-09T07:16:40;161193.69;;;33.19;36.93
5350;BME280;2697;42.144;24.794;2023-07-09T07:19:06;161358.25;;;33.82;36.74
5350;BME280;2697;42.144;24.794;2023-07-09T07:21:33;161476.06;;;34.26;35.65
5350;BME280;2697;42.144;24.794;2023-07-09T07:23:58;161165.63;;;33.08;35.67
5350;BME280;2697;42.144;24.794;2023-07-09T07:26:23;161112.13;;;32.88;37.05
5350;BME280;2697;42.144;24.794;2023-07-09T07:28:49;161276.69;;;33.51;36.49
5350;BME280;2697;42.144;24.794;2023-07-09T07:31:16;161394.41;;;33.95;35.86
5350;BME280;2697;42.144;24.794;2023-07-09T07:33:42;161223.09;;;33.30;36.88
5350;BME280;2697;42.144;24.794;2023-07-09T07:36:08;161235.16;;;33.35;35.67
5350;BME280;2697;42.144;24.794;2023-07-09T07:38:34;161092.03;;;32.80;37.35
5350;BME280;2697;42.144;24.794;2023-07-09T07:41:00;161106.81;;;32.86;36.49
5350;BME280;2697;42.144;24.794;2023-07-09T07:43:26;161073.28;;;32.73;37.61
5350;BME280;2697;42.144;24.794;2023-07-09T07:45:51;161033.22;;;32.58;36.62
5350;BME280;2697;42.144;24.794;2023-07-09T07:48:17;161025.16;;;32.55;36.18
5350;BME280;2697;42.144;24.794;2023-07-09T07:50:42;161211.09;;;33.26;35.89
5350;BME280;2697;42.144;24.794;2023-07-09T07:53:08;161350.25;;;33.79;35.73
5350;BME280;2697;42.144;24.794;2023-07-09T07:55:34;161189.69;;;33.17;35.52
5350;BME280;2697;42.144;24.794;2023-07-09T07:58:01;161109.47;;;32.87;35.98
5350;BME280;2697;42.144;24.794;2023-07-09T08:00:29;161219.09;;;33.29;35.37
5350;BME280;2697;42.144;24.794;2023-07-09T08:02:54;161282.03;;;33.53;34.54
5350;BME280;2697;42.144;24.794;2023-07-09T08:05:20;161320.78;;;33.67;34.85
5350;BME280;2697;42.144;24.794;2023-07-09T08:07:45;161352.91;;;33.80;34.55
5350;BME280;2697;42.144;24.794;2023-07-09T08:10:11;161278.00;;;33.51;34.46
5350;BME280;2697;42.144;24.794;2023-07-09T08:12:37;161308.75;;;33.63;34.19
5350;BME280;2697;42.144;24.794;2023-07-09T08:15:03;161434.56;;;34.11;34.23
5350;BME280;2697;42.144;24.794;2023-07-09T08:17:29;161088.03;;;32.79;35.48
5350;BME280;2697;42.144;24.794;2023-07-09T08:19:54;161189.69;;;33.17;35.62
5350;BME280;2697;42.144;24.794;2023-07-09T08:22:20;161062.63;;;32.69;36.08
5350;BME280;2697;42.144;24.794;2023-07-09T08:24:47;161079.97;;;32.76;35.51
5350;BME280;2697;42.144;24.794;2023-07-09T08:27:13;161037.22;;;32.59;35.18
5350;BME280;2697;42.144;24.794;2023-07-09T08:29:38;161053.22;;;32.66;35.51
5350;BME280;2697;42.144;24.794;2023-07-09T08:32:05;160866.09;;;31.94;36.36
5350;BME280;2697;42.144;24.794;2023-07-09T08:34:32;160965.03;;;32.32;36.36
5350;BME280;2697;42.144;24.794;2023-07-09T08:36:57;160951.59;;;32.27;36.23
5350;BME280;2697;42.144;24.794;2023-07-09T08:39:23;160785.84;;;31.64;36.37
5350;BME280;2697;42.144;24.794;2023-07-09T08:47:15;160585.44;;;30.87;38.24
5350;BME280;2697;42.144;24.794;2023-07-09T08:50:11;160515.94;;;30.61;38.04
5350;BME280;2697;42.144;24.794;2023-07-09T08:52:38;160536.03;;;30.69;39.11
5350;BME280;2697;42.144;24.794;2023-07-09T08:55:09;160510.63;;;30.59;37.81
5350;BME280;2697;42.144;24.794;2023-07-09T08:57:42;160443.84;;;30.33;38.58
5350;BME280;2697;42.144;24.794;2023-07-09T09:00:13;160479.91;;;30.47;39.00
5350;BME280;2697;42.144;24.794;2023-07-09T09:02:46;160513.28;;;30.60;37.90
5350;BME280;2697;42.144;24.794;2023-07-09T09:05:14;160505.28;;;30.57;38.44
5350;BME280;2697;42.144;24.794;2023-07-09T09:07:43;160532.03;;;30.67;38.75
5350;BME280;2697;42.144;24.794;2023-07-09T09:10:18;160450.56;;;30.36;37.98
5350;BME280;2697;42.144;24.794;2023-07-09T09:15:31;160417.16;;;30.23;37.72
5350;BME280;2697;42.144;24.794;2023-07-09T09:18:10;160414.47;;;30.22;37.99
5350;BME280;2697;42.144;24.794;2023-07-09T09:20:40;160477.25;;;30.46;38.76
5350;BME280;2697;42.144;24.794;2023-07-09T09:25:32;160624.19;;;31.02;37.47
5350;BME280;2697;42.144;24.794;2023-07-09T09:28:02;160654.91;;;31.14;36.72
5350;BME280;2697;42.144;24.794;2023-07-09T09:30:29;160759.13;;;31.54;36.35
5350;BME280;2697;42.144;24.794;2023-07-09T09:33:06;160848.72;;;31.88;35.60
5350;BME280;2697;42.144;24.794;2023-07-09T09:35:35;160801.91;;;31.70;35.65
5350;BME280;2697;42.144;24.794;2023-07-09T09:38:02;160681.66;;;31.24;36.92
5350;BME280;2697;42.144;24.794;2023-07-09T09:40:34;160745.78;;;31.48;36.88
5350;BME280;2697;42.144;24.794;2023-07-09T09:43:01;160792.56;;;31.66;36.94
5350;BME280;2697;42.144;24.794;2023-07-09T09:45:36;160729.75;;;31.42;35.99
5350;BME280;2697;42.144;24.794;2023-07-09T09:48:14;160654.91;;;31.14;36.35
5350;BME280;2697;42.144;24.794;2023-07-09T09:50:40;160719.09;;;31.38;36.81
5350;BME280;2697;42.144;24.794;2023-07-09T09:53:07;160728.41;;;31.42;36.01
5350;BME280;2697;42.144;24.794;2023-07-09T09:55:33;160755.13;;;31.52;35.29
5350;BME280;2697;42.144;24.794;2023-07-09T09:58:00;160709.69;;;31.35;35.21
5350;BME280;2697;42.144;24.794;2023-07-09T10:00:28;160735.09;;;31.44;35.10
5350;BME280;2697;42.144;24.794;2023-07-09T10:03:04;160747.13;;;31.49;34.49
5350;BME280;2697;42.144;24.794;2023-07-09T10:05:43;160801.91;;;31.70;34.17
5350;BME280;2697;42.144;24.794;2023-07-09T10:08:17;160815.28;;;31.75;34.21
5350;BME280;2697;42.144;24.794;2023-07-09T10:10:49;160727.09;;;31.41;34.63
5350;BME280;2697;42.144;24.794;2023-07-09T10:16:08;160823.34;;;31.78;32.89
5350;BME280;2697;42.144;24.794;2023-07-09T10:18:47;160748.47;;;31.49;31.73
5350;BME280;2697;42.144;24.794;2023-07-09T10:23:55;160743.13;;;31.47;31.94
5350;BME280;2697;42.144;24.794;2023-07-09T10:29:20;160801.91;;;31.70;30.98
5350;BME280;2697;42.144;24.794;2023-07-09T10:35:15;160748.47;;;31.49;34.35
5350;BME280;2697;42.144;24.794;2023-07-09T10:38:05;160868.75;;;31.95;33.57
5350;BME280;2697;42.144;24.794;2023-07-09T10:40:39;160831.34;;;31.81;33.92
5350;BME280;2697;42.144;24.794;2023-07-09T10:43:10;160773.84;;;31.59;34.21
5350;BME280;2697;42.144;24.794;2023-07-09T10:45:44;160875.44;;;31.98;34.36
5350;BME280;2697;42.144;24.794;2023-07-09T10:48:18;160962.38;;;32.31;33.86
5350;BME280;2697;42.144;24.794;2023-07-09T10:50:48;160989.09;;;32.41;32.82
5350;BME280;2697;42.144;24.794;2023-07-09T10:53:33;161010.50;;;32.49;33.13
5350;BME280;2697;42.144;24.794;2023-07-09T10:56:10;161121.47;;;32.92;31.67
5350;BME280;2697;42.144;24.794;2023-07-09T10:58:46;161051.91;;;32.65;31.95
5350;BME280;2697;42.144;24.794;2023-07-09T11:01:15;161125.47;;;32.93;32.46
5350;BME280;2697;42.144;24.794;2023-07-09T11:03:50;160878.09;;;31.99;33.24
5350;BME280;2697;42.144;24.794;2023-07-09T11:06:46;160948.94;;;32.26;32.64
5350;BME280;2697;42.144;24.794;2023-07-09T11:09:33;160981.03;;;32.38;33.58
5350;BME280;2697;42.144;24.794;2023-07-09T11:12:06;160954.28;;;32.28;33.73
5350;BME280;2697;42.144;24.794;2023-07-09T11:15:14;160899.50;;;32.07;34.52
5350;BME280;2697;42.144;24.794;2023-07-09T11:17:45;160994.44;;;32.43;33.46
5350;BME280;2697;42.144;24.794;2023-07-09T11:20:22;161101.41;;;32.84;32.37
5350;BME280;2697;42.144;24.794;2023-07-09T11:22:54;161114.81;;;32.89;32.52
5350;BME280;2697;42.144;24.794;2023-07-09T11:25:31;161093.34;;;32.81;32.94
5350;BME280;2697;42.144;24.794;2023-07-09T11:28:06;160970.38;;;32.34;32.97
5350;BME280;2697;42.144;24.794;2023-07-09T11:30:32;160927.53;;;32.18;33.69
5350;BME280;2697;42.144;24.794;2023-07-09T11:33:02;160973.06;;;32.35;32.84
5350;BME280;2697;42.144;24.794;2023-07-09T11:35:50;160938.28;;;32.22;32.08
5350;BME280;2697;42.144;24.794;2023-07-09T11:38:21;160836.72;;;31.83;32.96
5350;BME280;2697;42.144;24.794;2023-07-09T11:40:55;160932.88;;;32.20;32.69
5350;BME280;2697;42.144;24.794;2023-07-09T11:43:47;160963.72;;;32.31;32.06
5350;BME280;2697;42.144;24.794;2023-07-09T11:46:18;160958.28;;;32.29;32.99
5350;BME280;2697;42.144;24.794;2023-07-09T11:48:45;160967.72;;;32.33;32.63
5350;BME280;2697;42.144;24.794;2023-07-09T11:51:16;160930.22;;;32.19;33.58
5350;BME280;2697;42.144;24.794;2023-07-09T11:53:53;160948.94;;;32.26;33.60
5350;BME280;2697;42.144;24.794;2023-07-09T11:56:23;160948.94;;;32.26;32.61
5350;BME280;2697;42.144;24.794;2023-07-09T11:58:55;161021.16;;;32.53;33.36
5350;BME280;2697;42.144;24.794;2023-07-09T12:01:23;161022.50;;;32.54;33.33
5350;BME280;2697;42.144;24.794;2023-07-09T12:03:51;161071.97;;;32.73;33.18
5350;BME280;2697;42.144;24.794;2023-07-09T12:06:32;160985.09;;;32.40;33.67
5350;BME280;2697;42.144;24.794;2023-07-09T12:08:59;161067.97;;;32.71;33.29
5350;BME280;2697;42.144;24.794;2023-07-09T12:11:30;161165.63;;;33.08;33.16
5350;BME280;2697;42.144;24.794;2023-07-09T12:14:04;161185.69;;;33.16;32.62
5350;BME280;2697;42.144;24.794;2023-07-09T12:16:34;161244.56;;;33.38;32.62
5350;BME280;2697;42.144;24.794;2023-07-09T12:19:00;161425.22;;;34.07;31.68
5350;BME280;2697;42.144;24.794;2023-07-09T12:21:26;161526.94;;;34.46;31.01
5350;BME280;2697;42.144;24.794;2023-07-09T12:23:53;161588.47;;;34.69;31.11
5350;BME280;2697;42.144;24.794;2023-07-09T12:26:19;161569.72;;;34.62;30.86
5350;BME280;2697;42.144;24.794;2023-07-09T12:28:57;161427.88;;;34.08;30.17
5350;BME280;2697;42.144;24.794;2023-07-09T12:31:29;161743.84;;;35.28;29.29
5350;BME280;2697;42.144;24.794;2023-07-09T12:33:56;161652.78;;;34.94;29.27
5350;BME280;2697;42.144;24.794;2023-07-09T12:36:24;161733.09;;;35.24;30.10
5350;BME280;2697;42.144;24.794;2023-07-09T12:38:53;161494.75;;;34.34;31.10
5350;BME280;2697;42.144;24.794;2023-07-09T12:41:24;161604.56;;;34.75;32.57
5350;BME280;2697;42.144;24.794;2023-07-09T12:43:52;161532.28;;;34.48;31.89
5350;BME280;2697;42.144;24.794;2023-07-09T12:46:20;161552.38;;;34.55;31.74
5350;BME280;2697;42.144;24.794;2023-07-09T12:48:46;161390.41;;;33.94;31.58
5350;BME280;2697;42.144;24.794;2023-07-09T12:51:23;161421.16;;;34.06;32.63
5350;BME280;2697;42.144;24.794;2023-07-09T12:54:01;161619.31;;;34.81;31.18
5350;BME280;2697;42.144;24.794;2023-07-09T12:56:27;161509.53;;;34.39;31.27
5350;BME280;2697;42.144;24.794;2023-07-09T12:58:56;161632.66;;;34.86;31.68
5350;BME280;2697;42.144;24.794;2023-07-09T13:01:23;161521.59;;;34.44;32.48
5350;BME280;2697;42.144;24.794;2023-07-09T13:03:55;161427.88;;;34.08;32.58
5350;BME280;2697;42.144;24.794;2023-07-09T13:06:39;161555.03;;;34.56;32.36
5350;BME280;2697;42.144;24.794;2023-07-09T13:09:34;161542.97;;;34.52;32.52
5350;BME280;2697;42.144;24.794;2023-07-09T13:12:03;161644.78;;;34.91;31.27
5350;BME280;2697;42.144;24.794;2023-07-09T13:14:30;161700.97;;;35.12;31.49
5350;BME280;2697;42.144;24.794;2023-07-09T13:17:04;161678.22;;;35.03;31.27
5350;BME280;2697;42.144;24.794;2023-07-09T13:19:29;161593.81;;;34.71;31.86
5350;BME280;2697;42.144;24.794;2023-07-09T13:21:55;161521.59;;;34.44;32.65
5350;BME280;2697;42.144;24.794;2023-07-09T13:24:23;161587.13;;;34.69;32.37
5350;BME280;2697;42.144;24.794;2023-07-09T13:26:49;161608.56;;;34.77;32.62
5350;BME280;2697;42.144;24.794;2023-07-09T13:29:16;161521.59;;;34.44;32.84